sensor_id;sensor_type;location;lat;lon;timestamp;temperature;humidity
21678;DHT22;11000;50.360;7.582;2023-10-19T00:01:35;11.70;99.90
21678;DHT22;11000;50.360;7.582;2023-10-19T00:03:55;11.70;99.90
21678;DHT22;11000;50.360;7.582;2023-10-19T00:06:19;11.70;99.90
21678;DHT22;11000;50.360;7.582;2023-10-19T00:08:39;11.70;99.90
21678;DHT22;11000;50.360;7.582;2023-10-19T00:11:03;11.80;99.90
21678;DHT22;11000;50.360;7.582;2023-10-19T00:13:28;11.80;99.90
21678;DHT22;11000;50.360;7.582;2023-10-19T00:15:49;11.80;99.90
21678;DHT22;11000;50.360;7.582;2023-10-19T00:18:14;11.80;99.90
21678;DHT22;11000;50.360;7.582;2023-10-19T00:20:38;11.70;99.90
21678;DHT22;11000;50.360;7.582;2023-10-19T00:23:01;11.80;99.90
21678;DHT22;11000;50.360;7.582;2023-10-19T00:25:25;11.80;99.90
21678;DHT22;11000;50.360;7.582;2023-10-19T00:27:46;11.80;99.90
21678;DHT22;11000;50.360;7.582;2023-10-19T00:30:09;11.80;99.90
21678;DHT22;11000;50.360;7.582;2023-10-19T00:32:30;11.90;99.90
21678;DHT22;11000;50.360;7.582;2023-10-19T00:34:51;11.90;99.90
21678;DHT22;11000;50.360;7.582;2023-10-19T00:37:15;11.80;99.90
21678;DHT22;11000;50.360;7.582;2023-10-19T00:39:39;11.80;99.90
21678;DHT22;11000;50.360;7.582;2023-10-19T00:42:07;11.90;99.90
21678;DHT22;11000;50.360;7.582;2023-10-19T00:44:27;11.90;99.90
21678;DHT22;11000;50.360;7.582;2023-10-19T00:47:02;11.90;99.90
21678;DHT22;11000;50.360;7.582;2023-10-19T00:49:33;11.90;99.90
21678;DHT22;11000;50.360;7.582;2023-10-19T00:51:55;11.90;99.90
21678;DHT22;11000;50.360;7.582;2023-10-19T00:54:29;11.90;99.90
21678;DHT22;11000;50.360;7.582;2023-10-19T00:56:56;11.90;99.90
21678;DHT22;11000;50.360;7.582;2023-10-19T00:59:20;11.90;99.90
21678;DHT22;11000;50.360;7.582;2023-10-19T01:01:44;11.90;99.90
21678;DHT22;11000;50.360;7.582;2023-10-19T01:04:08;11.90;99.90
21678;DHT22;11000;50.360;7.582;2023-10-19T01:06:28;11.90;99.90
21678;DHT22;11000;50.360;7.582;2023-10-19T01:08:52;12.00;99.90
21678;DHT22;11000;50.360;7.582;2023-10-19T01:11:13;11.90;99.90
21678;DHT22;11000;50.360;7.582;2023-10-19T01:13:36;11.90;99.90
21678;DHT22;11000;50.360;7.582;2023-10-19T01:15:56;12.00;99.90
21678;DHT22;11000;50.360;7.582;2023-10-19T01:18:18;12.00;99.90
21678;DHT22;11000;50.360;7.582;2023-10-19T01:20:39;12.00;99.90
21678;DHT22;11000;50.360;7.582;2023-10-19T01:23:11;12.00;99.90
21678;DHT22;11000;50.360;7.582;2023-10-19T01:28:08;12.00;99.90
21678;DHT22;11000;50.360;7.582;2023-10-19T01:30:30;12.10;99.90
21678;DHT22;11000;50.360;7.582;2023-10-19T01:32:50;12.10;99.90
21678;DHT22;11000;50.360;7.582;2023-10-19T01:35:12;12.10;99.90
21678;DHT22;11000;50.360;7.582;2023-10-19T01:37:32;12.10;99.90
21678;DHT22;11000;50.360;7.582;2023-10-19T01:39:58;12.10;99.90
21678;DHT22;11000;50.360;7.582;2023-10-19T01:42:18;12.10;99.90
21678;DHT22;11000;50.360;7.582;2023-10-19T01:44:39;12.10;99.90
21678;DHT22;11000;50.360;7.582;2023-10-19T01:47:00;12.10;99.90
21678;DHT22;11000;50.360;7.582;2023-10-19T01:49:21;12.20;99.90
21678;DHT22;11000;50.360;7.582;2023-10-19T01:51:48;12.20;99.90
21678;DHT22;11000;50.360;7.582;2023-10-19T01:54:09;12.20;99.90
21678;DHT22;11000;50.360;7.582;2023-10-19T01:56:30;12.20;99.90
21678;DHT22;11000;50.360;7.582;2023-10-19T01:58:51;12.20;99.90
21678;DHT22;11000;50.360;7.582;2023-10-19T02:01:16;12.20;99.90
21678;DHT22;11000;50.360;7.582;2023-10-19T02:03:49;12.20;99.90
21678;DHT22;11000;50.360;7.582;2023-10-19T02:06:15;12.20;99.90
21678;DHT22;11000;50.360;7.582;2023-10-19T02:08:50;12.30;99.90
21678;DHT22;11000;50.360;7.582;2023-10-19T02:11:11;12.30;99.90
21678;DHT22;11000;50.360;7.582;2023-10-19T02:13:38;12.30;99.90
21678;DHT22;11000;50.360;7.582;2023-10-19T02:15:59;12.30;99.90
21678;DHT22;11000;50.360;7.582;2023-10-19T02:18:20;12.30;99.90
21678;DHT22;11000;50.360;7.582;2023-10-19T02:20:41;12.30;99.90
21678;DHT22;11000;50.360;7.582;2023-10-19T02:23:09;12.30;99.90
21678;DHT22;11000;50.360;7.582;2023-10-19T02:25:29;12.30;99.90
21678;DHT22;11000;50.360;7.582;2023-10-19T02:27:56;12.40;99.90
21678;DHT22;11000;50.360;7.582;2023-10-19T02:30:17;12.40;99.90
21678;DHT22;11000;50.360;7.582;2023-10-19T02:32:38;12.40;99.90
21678;DHT22;11000;50.360;7.582;2023-10-19T02:34:58;12.40;99.90
21678;DHT22;11000;50.360;7.582;2023-10-19T02:37:19;12.40;99.90
21678;DHT22;11000;50.360;7.582;2023-10-19T02:39:39;12.40;99.90
21678;DHT22;11000;50.360;7.582;2023-10-19T02:42:00;12.50;99.90
21678;DHT22;11000;50.360;7.582;2023-10-19T02:44:23;12.50;99.90
21678;DHT22;11000;50.360;7.582;2023-10-19T02:46:47;12.50;99.90
21678;DHT22;11000;50.360;7.582;2023-10-19T02:49:09;12.50;99.90
21678;DHT22;11000;50.360;7.582;2023-10-19T02:51:34;12.50;99.90
21678;DHT22;11000;50.360;7.582;2023-10-19T02:53:54;12.50;99.90
21678;DHT22;11000;50.360;7.582;2023-10-19T02:56:16;12.40;99.90
21678;DHT22;11000;50.360;7.582;2023-10-19T02:58:38;12.50;99.90
21678;DHT22;11000;50.360;7.582;2023-10-19T03:01:02;12.50;99.90
21678;DHT22;11000;50.360;7.582;2023-10-19T03:03:23;12.50;99.90
21678;DHT22;11000;50.360;7.582;2023-10-19T03:05:43;12.50;99.90
21678;DHT22;11000;50.360;7.582;2023-10-19T03:08:04;12.50;99.90
21678;DHT22;11000;50.360;7.582;2023-10-19T03:10:26;12.50;99.90
21678;DHT22;11000;50.360;7.582;2023-10-19T03:13:02;12.50;99.90
21678;DHT22;11000;50.360;7.582;2023-10-19T03:15:24;12.50;99.90
21678;DHT22;11000;50.360;7.582;2023-10-19T03:17:45;12.60;99.90
21678;DHT22;11000;50.360;7.582;2023-10-19T03:20:06;12.60;99.90
21678;DHT22;11000;50.360;7.582;2023-10-19T03:22:27;12.60;99.90
21678;DHT22;11000;50.360;7.582;2023-10-19T03:24:48;12.60;99.90
21678;DHT22;11000;50.360;7.582;2023-10-19T03:27:18;12.60;99.90
21678;DHT22;11000;50.360;7.582;2023-10-19T03:29:42;12.70;99.90
21678;DHT22;11000;50.360;7.582;2023-10-19T03:32:07;12.70;99.90
21678;DHT22;11000;50.360;7.582;2023-10-19T03:34:28;12.70;99.90
21678;DHT22;11000;50.360;7.582;2023-10-19T03:36:52;12.60;99.90
21678;DHT22;11000;50.360;7.582;2023-10-19T03:39:12;12.60;99.90
21678;DHT22;11000;50.360;7.582;2023-10-19T03:41:33;12.70;99.90
21678;DHT22;11000;50.360;7.582;2023-10-19T03:43:56;12.70;99.90
21678;DHT22;11000;50.360;7.582;2023-10-19T03:46:18;12.70;99.90
21678;DHT22;11000;50.360;7.582;2023-10-19T03:48:48;12.70;99.90
21678;DHT22;11000;50.360;7.582;2023-10-19T03:51:09;12.70;99.90
21678;DHT22;11000;50.360;7.582;2023-10-19T03:53:33;12.70;99.90
21678;DHT22;11000;50.360;7.582;2023-10-19T03:55:54;12.70;99.90
21678;DHT22;11000;50.360;7.582;2023-10-19T03:58:16;12.80;99.90
21678;DHT22;11000;50.360;7.582;2023-10-19T04:00:36;12.80;99.90
21678;DHT22;11000;50.360;7.582;2023-10-19T04:02:57;12.80;99.90
21678;DHT22;11000;50.360;7.582;2023-10-19T04:05:18;12.90;99.90
21678;DHT22;11000;50.360;7.582;2023-10-19T04:07:43;12.90;99.90
21678;DHT22;11000;50.360;7.582;2023-10-19T04:10:04;12.90;99.90
21678;DHT22;11000;50.360;7.582;2023-10-19T04:12:28;12.90;99.90
21678;DHT22;11000;50.360;7.582;2023-10-19T04:14:51;12.90;99.90
21678;DHT22;11000;50.360;7.582;2023-10-19T04:17:12;13.00;99.90
21678;DHT22;11000;50.360;7.582;2023-10-19T04:19:33;13.00;99.90
21678;DHT22;11000;50.360;7.582;2023-10-19T04:21:53;13.00;99.90
21678;DHT22;11000;50.360;7.582;2023-10-19T04:24:16;13.00;99.90
21678;DHT22;11000;50.360;7.582;2023-10-19T04:26:40;13.00;99.90
21678;DHT22;11000;50.360;7.582;2023-10-19T04:29:00;13.00;99.90
21678;DHT22;11000;50.360;7.582;2023-10-19T04:31:29;13.00;99.90
21678;DHT22;11000;50.360;7.582;2023-10-19T04:33:50;13.00;99.90
21678;DHT22;11000;50.360;7.582;2023-10-19T04:36:11;13.00;99.90
21678;DHT22;11000;50.360;7.582;2023-10-19T04:38:32;13.00;99.90
21678;DHT22;11000;50.360;7.582;2023-10-19T04:40:53;13.00;99.90
21678;DHT22;11000;50.360;7.582;2023-10-19T04:43:14;13.00;99.90
21678;DHT22;11000;50.360;7.582;2023-10-19T04:45:39;13.10;99.90
21678;DHT22;11000;50.360;7.582;2023-10-19T04:48:00;13.10;99.90
21678;DHT22;11000;50.360;7.582;2023-10-19T04:50:23;13.10;99.90
21678;DHT22;11000;50.360;7.582;2023-10-19T04:52:43;13.10;99.90
21678;DHT22;11000;50.360;7.582;2023-10-19T04:55:04;13.10;99.90
21678;DHT22;11000;50.360;7.582;2023-10-19T04:57:25;13.00;99.90
21678;DHT22;11000;50.360;7.582;2023-10-19T04:59:49;13.00;99.90
21678;DHT22;11000;50.360;7.582;2023-10-19T05:02:10;13.00;99.90
21678;DHT22;11000;50.360;7.582;2023-10-19T05:04:30;13.00;99.90
21678;DHT22;11000;50.360;7.582;2023-10-19T05:06:51;13.00;99.90
21678;DHT22;11000;50.360;7.582;2023-10-19T05:09:11;13.00;99.90
21678;DHT22;11000;50.360;7.582;2023-10-19T05:11:32;13.00;99.90
21678;DHT22;11000;50.360;7.582;2023-10-19T05:13:52;13.00;99.90
21678;DHT22;11000;50.360;7.582;2023-10-19T05:16:13;13.00;99.90
21678;DHT22;11000;50.360;7.582;2023-10-19T05:18:33;13.00;99.90
21678;DHT22;11000;50.360;7.582;2023-10-19T05:20:54;13.00;99.90
21678;DHT22;11000;50.360;7.582;2023-10-19T05:23:17;13.00;99.90
21678;DHT22;11000;50.360;7.582;2023-10-19T05:25:40;13.00;99.90
21678;DHT22;11000;50.360;7.582;2023-10-19T05:28:00;13.00;99.90
21678;DHT22;11000;50.360;7.582;2023-10-19T05:30:21;13.00;99.90
21678;DHT22;11000;50.360;7.582;2023-10-19T05:32:42;13.00;99.90
21678;DHT22;11000;50.360;7.582;2023-10-19T05:35:03;13.00;99.90
21678;DHT22;11000;50.360;7.582;2023-10-19T05:37:25;13.00;99.90
21678;DHT22;11000;50.360;7.582;2023-10-19T05:39:46;13.00;99.90
21678;DHT22;11000;50.360;7.582;2023-10-19T05:42:07;13.10;99.90
21678;DHT22;11000;50.360;7.582;2023-10-19T05:44:28;13.10;99.90
21678;DHT22;11000;50.360;7.582;2023-10-19T05:46:50;13.10;99.90
21678;DHT22;11000;50.360;7.582;2023-10-19T05:49:11;13.10;99.90
21678;DHT22;11000;50.360;7.582;2023-10-19T05:51:32;13.10;99.90
21678;DHT22;11000;50.360;7.582;2023-10-19T05:53:53;13.20;99.90
21678;DHT22;11000;50.360;7.582;2023-10-19T05:56:14;13.20;99.90
21678;DHT22;11000;50.360;7.582;2023-10-19T05:58:37;13.20;99.90
21678;DHT22;11000;50.360;7.582;2023-10-19T06:01:01;13.20;99.90
21678;DHT22;11000;50.360;7.582;2023-10-19T06:03:21;13.20;99.90
21678;DHT22;11000;50.360;7.582;2023-10-19T06:05:41;13.20;99.90
21678;DHT22;11000;50.360;7.582;2023-10-19T06:08:03;13.20;99.90
21678;DHT22;11000;50.360;7.582;2023-10-19T06:10:24;13.20;99.90
21678;DHT22;11000;50.360;7.582;2023-10-19T06:12:46;13.20;99.90
21678;DHT22;11000;50.360;7.582;2023-10-19T06:15:07;13.10;99.90
21678;DHT22;11000;50.360;7.582;2023-10-19T06:17:28;13.10;99.90
21678;DHT22;11000;50.360;7.582;2023-10-19T06:19:49;13.10;99.90
21678;DHT22;11000;50.360;7.582;2023-10-19T06:22:09;13.10;99.90
21678;DHT22;11000;50.360;7.582;2023-10-19T06:24:30;13.10;99.90
21678;DHT22;11000;50.360;7.582;2023-10-19T06:26:50;13.00;99.90
21678;DHT22;11000;50.360;7.582;2023-10-19T06:29:13;13.00;99.90
21678;DHT22;11000;50.360;7.582;2023-10-19T06:31:33;13.10;99.90
21678;DHT22;11000;50.360;7.582;2023-10-19T06:33:54;13.10;99.90
21678;DHT22;11000;50.360;7.582;2023-10-19T06:36:14;13.10;99.90
21678;DHT22;11000;50.360;7.582;2023-10-19T06:38:35;13.00;99.90
21678;DHT22;11000;50.360;7.582;2023-10-19T06:40:56;13.10;99.90
21678;DHT22;11000;50.360;7.582;2023-10-19T06:43:16;13.10;99.90
21678;DHT22;11000;50.360;7.582;2023-10-19T06:45:37;13.10;99.90
21678;DHT22;11000;50.360;7.582;2023-10-19T06:47:58;13.10;99.90
21678;DHT22;11000;50.360;7.582;2023-10-19T06:50:22;13.20;99.90
21678;DHT22;11000;50.360;7.582;2023-10-19T06:52:44;13.10;99.90
21678;DHT22;11000;50.360;7.582;2023-10-19T06:55:06;13.20;99.90
21678;DHT22;11000;50.360;7.582;2023-10-19T06:57:41;13.20;99.90
21678;DHT22;11000;50.360;7.582;2023-10-19T07:00:03;13.20;99.90
21678;DHT22;11000;50.360;7.582;2023-10-19T07:02:34;13.30;99.90
21678;DHT22;11000;50.360;7.582;2023-10-19T07:04:54;13.30;99.90
21678;DHT22;11000;50.360;7.582;2023-10-19T07:07:15;13.30;99.90
21678;DHT22;11000;50.360;7.582;2023-10-19T07:09:35;13.40;99.90
21678;DHT22;11000;50.360;7.582;2023-10-19T07:11:56;13.40;99.90
21678;DHT22;11000;50.360;7.582;2023-10-19T07:14:17;13.40;99.90
21678;DHT22;11000;50.360;7.582;2023-10-19T07:16:37;13.50;99.90
21678;DHT22;11000;50.360;7.582;2023-10-19T07:18:58;13.50;99.90
21678;DHT22;11000;50.360;7.582;2023-10-19T07:21:19;13.60;99.90
21678;DHT22;11000;50.360;7.582;2023-10-19T07:23:41;13.60;99.90
21678;DHT22;11000;50.360;7.582;2023-10-19T07:26:01;13.60;99.90
21678;DHT22;11000;50.360;7.582;2023-10-19T07:28:22;13.70;99.90
21678;DHT22;11000;50.360;7.582;2023-10-19T07:30:46;13.70;99.90
21678;DHT22;11000;50.360;7.582;2023-10-19T07:33:08;13.80;99.90
21678;DHT22;11000;50.360;7.582;2023-10-19T07:35:34;13.80;99.90
21678;DHT22;11000;50.360;7.582;2023-10-19T07:37:55;13.80;99.90
21678;DHT22;11000;50.360;7.582;2023-10-19T07:40:17;13.80;99.90
21678;DHT22;11000;50.360;7.582;2023-10-19T07:42:38;13.80;99.90
21678;DHT22;11000;50.360;7.582;2023-10-19T07:44:59;13.80;99.90
21678;DHT22;11000;50.360;7.582;2023-10-19T07:47:19;13.80;99.90
21678;DHT22;11000;50.360;7.582;2023-10-19T07:49:40;13.90;99.90
21678;DHT22;11000;50.360;7.582;2023-10-19T07:52:00;13.80;99.90
21678;DHT22;11000;50.360;7.582;2023-10-19T07:54:21;13.80;99.90
21678;DHT22;11000;50.360;7.582;2023-10-19T07:56:41;13.90;99.90
21678;DHT22;11000;50.360;7.582;2023-10-19T07:59:02;13.90;99.90
21678;DHT22;11000;50.360;7.582;2023-10-19T08:01:22;13.90;99.90
21678;DHT22;11000;50.360;7.582;2023-10-19T08:03:43;14.00;99.90
21678;DHT22;11000;50.360;7.582;2023-10-19T08:06:03;14.10;99.90
21678;DHT22;11000;50.360;7.582;2023-10-19T08:08:25;14.20;99.90
21678;DHT22;11000;50.360;7.582;2023-10-19T08:10:45;14.20;99.90
21678;DHT22;11000;50.360;7.582;2023-10-19T08:13:07;14.30;99.90
21678;DHT22;11000;50.360;7.582;2023-10-19T08:15:28;14.30;99.90
21678;DHT22;11000;50.360;7.582;2023-10-19T08:17:52;14.40;99.90
21678;DHT22;11000;50.360;7.582;2023-10-19T08:20:15;14.50;99.90
21678;DHT22;11000;50.360;7.582;2023-10-19T08:22:47;14.60;99.90
21678;DHT22;11000;50.360;7.582;2023-10-19T08:25:08;14.80;99.90
21678;DHT22;11000;50.360;7.582;2023-10-19T08:27:32;14.90;99.90
21678;DHT22;11000;50.360;7.582;2023-10-19T08:29:53;15.10;99.90
21678;DHT22;11000;50.360;7.582;2023-10-19T08:32:16;15.20;99.90
21678;DHT22;11000;50.360;7.582;2023-10-19T08:34:36;15.20;99.90
21678;DHT22;11000;50.360;7.582;2023-10-19T08:36:57;15.20;99.90
21678;DHT22;11000;50.360;7.582;2023-10-19T08:39:17;15.20;99.90
21678;DHT22;11000;50.360;7.582;2023-10-19T08:41:39;15.20;99.90
21678;DHT22;11000;50.360;7.582;2023-10-19T08:44:02;15.20;99.90
21678;DHT22;11000;50.360;7.582;2023-10-19T08:46:23;15.20;99.90
21678;DHT22;11000;50.360;7.582;2023-10-19T08:48:45;15.10;99.90
21678;DHT22;11000;50.360;7.582;2023-10-19T08:51:10;15.20;99.90
21678;DHT22;11000;50.360;7.582;2023-10-19T08:53:30;15.20;99.90
21678;DHT22;11000;50.360;7.582;2023-10-19T08:55:51;15.40;99.90
21678;DHT22;11000;50.360;7.582;2023-10-19T08:58:15;15.50;99.90
21678;DHT22;11000;50.360;7.582;2023-10-19T09:00:45;15.60;99.90
21678;DHT22;11000;50.360;7.582;2023-10-19T09:03:09;15.60;99.90
21678;DHT22;11000;50.360;7.582;2023-10-19T09:05:34;15.70;99.90
21678;DHT22;11000;50.360;7.582;2023-10-19T09:07:58;15.70;99.90
21678;DHT22;11000;50.360;7.582;2023-10-19T09:10:21;15.70;99.90
21678;DHT22;11000;50.360;7.582;2023-10-19T09:12:59;15.70;99.90
21678;DHT22;11000;50.360;7.582;2023-10-19T09:15:23;15.80;99.90
21678;DHT22;11000;50.360;7.582;2023-10-19T09:17:43;15.90;99.90
21678;DHT22;11000;50.360;7.582;2023-10-19T09:20:06;16.00;99.90
21678;DHT22;11000;50.360;7.582;2023-10-19T09:22:36;16.10;99.90
21678;DHT22;11000;50.360;7.582;2023-10-19T09:24:57;16.20;99.90
21678;DHT22;11000;50.360;7.582;2023-10-19T09:27:19;16.30;99.90
21678;DHT22;11000;50.360;7.582;2023-10-19T09:29:40;16.40;99.90
21678;DHT22;11000;50.360;7.582;2023-10-19T09:32:01;16.50;99.90
21678;DHT22;11000;50.360;7.582;2023-10-19T09:34:25;16.50;99.90
21678;DHT22;11000;50.360;7.582;2023-10-19T09:36:52;16.50;99.90
21678;DHT22;11000;50.360;7.582;2023-10-19T09:39:13;16.50;99.90
21678;DHT22;11000;50.360;7.582;2023-10-19T09:41:34;16.50;99.90
21678;DHT22;11000;50.360;7.582;2023-10-19T09:43:59;16.50;99.90
21678;DHT22;11000;50.360;7.582;2023-10-19T09:46:26;16.50;99.90
21678;DHT22;11000;50.360;7.582;2023-10-19T09:48:49;16.50;99.90
21678;DHT22;11000;50.360;7.582;2023-10-19T09:51:10;16.60;99.90
21678;DHT22;11000;50.360;7.582;2023-10-19T09:53:31;16.50;99.90
21678;DHT22;11000;50.360;7.582;2023-10-19T09:55:59;16.60;99.90
21678;DHT22;11000;50.360;7.582;2023-10-19T09:58:24;16.50;99.90
21678;DHT22;11000;50.360;7.582;2023-10-19T10:00:47;16.50;99.90
21678;DHT22;11000;50.360;7.582;2023-10-19T10:03:45;16.50;99.90
21678;DHT22;11000;50.360;7.582;2023-10-19T10:06:06;16.50;99.90
21678;DHT22;11000;50.360;7.582;2023-10-19T10:08:30;16.60;99.90
21678;DHT22;11000;50.360;7.582;2023-10-19T10:10:51;16.70;99.90
21678;DHT22;11000;50.360;7.582;2023-10-19T10:15:48;16.90;99.90
21678;DHT22;11000;50.360;7.582;2023-10-19T10:18:12;17.00;99.90
21678;DHT22;11000;50.360;7.582;2023-10-19T10:20:34;17.10;99.90
21678;DHT22;11000;50.360;7.582;2023-10-19T10:25:38;17.10;99.90
21678;DHT22;11000;50.360;7.582;2023-10-19T10:27:59;17.10;99.90
21678;DHT22;11000;50.360;7.582;2023-10-19T10:30:23;17.00;99.90
21678;DHT22;11000;50.360;7.582;2023-10-19T10:32:49;17.00;99.90
21678;DHT22;11000;50.360;7.582;2023-10-19T10:35:11;16.90;99.90
21678;DHT22;11000;50.360;7.582;2023-10-19T10:37:54;16.80;99.90
21678;DHT22;11000;50.360;7.582;2023-10-19T10:40:15;16.70;99.90
21678;DHT22;11000;50.360;7.582;2023-10-19T10:42:35;16.60;99.90
21678;DHT22;11000;50.360;7.582;2023-10-19T10:44:56;16.60;99.90
21678;DHT22;11000;50.360;7.582;2023-10-19T10:47:18;16.60;99.90
21678;DHT22;11000;50.360;7.582;2023-10-19T10:49:54;16.60;99.90
21678;DHT22;11000;50.360;7.582;2023-10-19T10:52:34;16.60;99.90
21678;DHT22;11000;50.360;7.582;2023-10-19T10:54:56;16.60;99.90
21678;DHT22;11000;50.360;7.582;2023-10-19T10:57:17;16.60;99.90
21678;DHT22;11000;50.360;7.582;2023-10-19T10:59:38;16.60;99.90
21678;DHT22;11000;50.360;7.582;2023-10-19T11:01:58;16.60;99.90
21678;DHT22;11000;50.360;7.582;2023-10-19T11:04:19;16.60;99.90
21678;DHT22;11000;50.360;7.582;2023-10-19T11:06:50;16.50;99.90
21678;DHT22;11000;50.360;7.582;2023-10-19T11:09:10;16.50;99.90
21678;DHT22;11000;50.360;7.582;2023-10-19T11:11:37;16.50;99.90
21678;DHT22;11000;50.360;7.582;2023-10-19T11:14:09;16.60;99.90
21678;DHT22;11000;50.360;7.582;2023-10-19T11:16:29;16.60;99.90
21678;DHT22;11000;50.360;7.582;2023-10-19T11:18:50;16.80;99.90
21678;DHT22;11000;50.360;7.582;2023-10-19T11:21:11;16.80;99.90
21678;DHT22;11000;50.360;7.582;2023-10-19T11:23:48;16.90;99.90
21678;DHT22;11000;50.360;7.582;2023-10-19T11:26:10;17.00;99.90
21678;DHT22;11000;50.360;7.582;2023-10-19T11:28:32;17.10;99.90
21678;DHT22;11000;50.360;7.582;2023-10-19T11:30:53;17.20;99.90
21678;DHT22;11000;50.360;7.582;2023-10-19T11:33:14;17.30;99.90
21678;DHT22;11000;50.360;7.582;2023-10-19T11:35:38;17.40;99.90
21678;DHT22;11000;50.360;7.582;2023-10-19T11:38:00;17.50;99.90
21678;DHT22;11000;50.360;7.582;2023-10-19T11:40:22;17.50;99.90
21678;DHT22;11000;50.360;7.582;2023-10-19T11:42:42;17.60;99.90
21678;DHT22;11000;50.360;7.582;2023-10-19T11:45:03;17.60;99.90
21678;DHT22;11000;50.360;7.582;2023-10-19T11:47:26;17.60;99.90
21678;DHT22;11000;50.360;7.582;2023-10-19T11:49:47;17.60;99.90
21678;DHT22;11000;50.360;7.582;2023-10-19T11:52:07;17.50;99.90
21678;DHT22;11000;50.360;7.582;2023-10-19T11:54:28;17.40;99.90
21678;DHT22;11000;50.360;7.582;2023-10-19T11:56:49;17.40;99.90
21678;DHT22;11000;50.360;7.582;2023-10-19T11:59:10;17.40;99.90
21678;DHT22;11000;50.360;7.582;2023-10-19T12:01:32;17.30;99.90
21678;DHT22;11000;50.360;7.582;2023-10-19T12:03:53;17.20;99.90
21678;DHT22;11000;50.360;7.582;2023-10-19T12:06:13;17.20;99.90
21678;DHT22;11000;50.360;7.582;2023-10-19T12:08:39;17.10;99.90
21678;DHT22;11000;50.360;7.582;2023-10-19T12:11:03;17.20;99.90
21678;DHT22;11000;50.360;7.582;2023-10-19T12:13:24;17.10;99.90
21678;DHT22;11000;50.360;7.582;2023-10-19T12:15:44;17.10;99.90
21678;DHT22;11000;50.360;7.582;2023-10-19T12:18:11;17.10;99.90
21678;DHT22;11000;50.360;7.582;2023-10-19T12:20:32;17.10;99.90
21678;DHT22;11000;50.360;7.582;2023-10-19T12:22:52;17.10;99.90
21678;DHT22;11000;50.360;7.582;2023-10-19T12:25:14;17.00;99.90
21678;DHT22;11000;50.360;7.582;2023-10-19T12:27:35;17.00;99.90
21678;DHT22;11000;50.360;7.582;2023-10-19T12:29:58;17.00;99.90
21678;DHT22;11000;50.360;7.582;2023-10-19T12:32:18;16.90;99.90
21678;DHT22;11000;50.360;7.582;2023-10-19T12:34:42;16.90;99.90
21678;DHT22;11000;50.360;7.582;2023-10-19T12:37:02;16.90;99.90
21678;DHT22;11000;50.360;7.582;2023-10-19T12:39:24;16.90;99.90
21678;DHT22;11000;50.360;7.582;2023-10-19T12:42:05;16.90;99.90
21678;DHT22;11000;50.360;7.582;2023-10-19T12:44:27;16.90;99.90
21678;DHT22;11000;50.360;7.582;2023-10-19T12:46:59;16.90;99.90
21678;DHT22;11000;50.360;7.582;2023-10-19T12:49:19;16.80;99.90
21678;DHT22;11000;50.360;7.582;2023-10-19T12:51:46;16.80;99.90
21678;DHT22;11000;50.360;7.582;2023-10-19T12:54:06;16.70;99.90
21678;DHT22;11000;50.360;7.582;2023-10-19T12:56:30;16.70;99.90
21678;DHT22;11000;50.360;7.582;2023-10-19T12:58:53;16.60;99.90
21678;DHT22;11000;50.360;7.582;2023-10-19T13:01:14;16.70;99.90
21678;DHT22;11000;50.360;7.582;2023-10-19T13:03:39;16.60;99.90
21678;DHT22;11000;50.360;7.582;2023-10-19T13:06:00;16.60;99.90
21678;DHT22;11000;50.360;7.582;2023-10-19T13:08:25;16.60;99.90
21678;DHT22;11000;50.360;7.582;2023-10-19T13:10:48;16.70;99.90
21678;DHT22;11000;50.360;7.582;2023-10-19T13:13:12;16.70;99.90
21678;DHT22;11000;50.360;7.582;2023-10-19T13:15:34;16.80;99.90
21678;DHT22;11000;50.360;7.582;2023-10-19T13:17:55;16.80;99.90
21678;DHT22;11000;50.360;7.582;2023-10-19T13:20:15;16.90;99.90
21678;DHT22;11000;50.360;7.582;2023-10-19T13:22:39;16.80;99.90
21678;DHT22;11000;50.360;7.582;2023-10-19T13:24:59;16.70;99.90
21678;DHT22;11000;50.360;7.582;2023-10-19T13:27:20;16.80;99.90
21678;DHT22;11000;50.360;7.582;2023-10-19T13:29:41;16.80;99.90
21678;DHT22;11000;50.360;7.582;2023-10-19T13:32:02;16.80;99.90
21678;DHT22;11000;50.360;7.582;2023-10-19T13:34:23;16.80;99.90
21678;DHT22;11000;50.360;7.582;2023-10-19T13:36:43;16.80;99.90
21678;DHT22;11000;50.360;7.582;2023-10-19T13:39:06;16.70;99.90
21678;DHT22;11000;50.360;7.582;2023-10-19T13:41:33;16.60;99.90
21678;DHT22;11000;50.360;7.582;2023-10-19T13:43:53;16.60;99.90
21678;DHT22;11000;50.360;7.582;2023-10-19T13:46:14;16.60;99.90
21678;DHT22;11000;50.360;7.582;2023-10-19T13:48:35;16.60;99.90
21678;DHT22;11000;50.360;7.582;2023-10-19T13:50:57;16.60;99.90
21678;DHT22;11000;50.360;7.582;2023-10-19T13:53:21;16.60;99.90
21678;DHT22;11000;50.360;7.582;2023-10-19T13:55:42;16.50;99.90
21678;DHT22;11000;50.360;7.582;2023-10-19T13:58:03;16.50;99.90
21678;DHT22;11000;50.360;7.582;2023-10-19T14:00:24;16.50;99.90
21678;DHT22;11000;50.360;7.582;2023-10-19T14:02:51;16.40;99.90
21678;DHT22;11000;50.360;7.582;2023-10-19T14:05:12;16.40;99.90
21678;DHT22;11000;50.360;7.582;2023-10-19T14:07:33;16.30;99.90
21678;DHT22;11000;50.360;7.582;2023-10-19T14:09:53;16.30;99.90
21678;DHT22;11000;50.360;7.582;2023-10-19T14:12:14;16.30;99.90
21678;DHT22;11000;50.360;7.582;2023-10-19T14:14:34;16.20;99.90
21678;DHT22;11000;50.360;7.582;2023-10-19T14:16:55;16.20;99.90
21678;DHT22;11000;50.360;7.582;2023-10-19T14:19:16;16.20;99.90
21678;DHT22;11000;50.360;7.582;2023-10-19T14:21:37;16.20;99.90
21678;DHT22;11000;50.360;7.582;2023-10-19T14:24:00;16.20;99.90
21678;DHT22;11000;50.360;7.582;2023-10-19T14:26:21;16.10;99.90
21678;DHT22;11000;50.360;7.582;2023-10-19T14:28:41;16.10;99.90
21678;DHT22;11000;50.360;7.582;2023-10-19T14:31:02;16.10;99.90
21678;DHT22;11000;50.360;7.582;2023-10-19T14:33:24;16.10;99.90
21678;DHT22;11000;50.360;7.582;2023-10-19T14:35:44;16.10;99.90
21678;DHT22;11000;50.360;7.582;2023-10-19T14:38:05;16.10;99.90
21678;DHT22;11000;50.360;7.582;2023-10-19T14:40:27;16.00;99.90
21678;DHT22;11000;50.360;7.582;2023-10-19T14:42:48;16.10;99.90
21678;DHT22;11000;50.360;7.582;2023-10-19T14:45:11;16.10;99.90
21678;DHT22;11000;50.360;7.582;2023-10-19T14:47:34;16.10;99.90
21678;DHT22;11000;50.360;7.582;2023-10-19T14:49:54;16.10;99.90
21678;DHT22;11000;50.360;7.582;2023-10-19T14:52:15;16.10;99.90
21678;DHT22;11000;50.360;7.582;2023-10-19T14:54:35;16.10;99.90
21678;DHT22;11000;50.360;7.582;2023-10-19T14:56:56;16.10;99.90
21678;DHT22;11000;50.360;7.582;2023-10-19T14:59:17;16.10;99.90
21678;DHT22;11000;50.360;7.582;2023-10-19T15:01:38;16.10;99.90
21678;DHT22;11000;50.360;7.582;2023-10-19T15:03:59;16.20;99.90
21678;DHT22;11000;50.360;7.582;2023-10-19T15:06:20;16.20;99.90
21678;DHT22;11000;50.360;7.582;2023-10-19T15:08:41;16.30;99.90